Time;durP1;ratioP1;P1;durP2;ratioP2;P2;SDS_P1;SDS_P2;PMS_P1;PMS_P2;Temp;Humidity;BMP_temperature;BMP_pressure;BME280_temperature;BME280_humidity;BME280_pressure;Samples;Min_cycle;Max_cycle;Signal;HPM_P1;HPM_P2
2024/01/22 00:02:25;;;;;;;10.63;2.80;;;25.30;99.90;;;;;;4955123;28;20272;-71
2024/01/22 00:04:52;;;;;;;16.97;3.13;;;25.40;99.90;;;;;;4955309;28;20176;-70
2024/01/22 00:07:19;;;;;;;11.30;2.53;;;25.40;99.90;;;;;;4955284;28;20606;-70
2024/01/22 00:09:47;;;;;;;17.90;3.23;;;26.10;99.90;;;;;;4954813;28;20191;-71
2024/01/22 00:12:14;;;;;;;14.00;3.00;;;26.80;99.90;;;;;;4955178;28;20176;-71
2024/01/22 00:14:42;;;;;;;12.07;2.20;;;27.00;99.90;;;;;;4954736;28;20184;-75
2024/01/22 00:17:09;;;;;;;9.40;2.80;;;27.10;99.90;;;;;;4954880;28;20223;-78
2024/01/22 00:19:37;;;;;;;12.03;2.63;;;27.00;99.90;;;;;;4954361;28;20199;-72
2024/01/22 00:22:04;;;;;;;10.20;2.80;;;26.70;99.90;;;;;;4958015;28;20191;-73
2024/01/22 00:24:31;;;;;;;12.17;3.03;;;26.40;99.90;;;;;;4957889;28;20187;-74
2024/01/22 00:26:59;;;;;;;8.73;2.77;;;26.60;99.90;;;;;;4978557;28;20201;-75
2024/01/22 00:29:26;;;;;;;11.87;2.80;;;26.50;99.90;;;;;;4975380;28;20219;-74
2024/01/22 00:31:53;;;;;;;13.23;2.53;;;26.40;99.90;;;;;;4971235;28;20180;-75
2024/01/22 00:34:20;;;;;;;16.10;3.43;;;26.30;99.90;;;;;;4956978;28;20246;-74
2024/01/22 00:36:48;;;;;;;11.20;2.53;;;26.10;99.90;;;;;;4970234;28;20227;-75
2024/01/22 00:39:15;;;;;;;12.67;2.80;;;26.90;99.90;;;;;;4974592;28;20302;-70
2024/01/22 00:41:42;;;;;;;14.10;3.20;;;28.00;99.90;;;;;;4962603;28;20254;-72
2024/01/22 00:44:09;;;;;;;9.00;2.23;;;27.70;99.90;;;;;;4955108;29;20180;-73
2024/01/22 00:46:37;;;;;;;12.77;2.67;;;27.30;99.90;;;;;;4963559;28;20195;-72
2024/01/22 00:49:04;;;;;;;9.43;2.30;;;27.00;99.90;;;;;;4976214;28;20231;-71
2024/01/22 00:51:33;;;;;;;7.70;2.10;;;27.20;99.90;;;;;;4971436;28;20192;-72
2024/01/22 00:54:01;;;;;;;11.10;2.80;;;27.60;99.90;;;;;;4956769;28;20259;-72
2024/01/22 00:56:28;;;;;;;12.00;3.13;;;27.90;99.90;;;;;;4956856;28;20172;-73
2024/01/22 00:58:56;;;;;;;16.37;2.70;;;27.60;99.90;;;;;;4956375;28;20263;-73
2024/01/22 01:01:23;;;;;;;6.47;2.07;;;27.20;99.90;;;;;;4956722;28;20188;-72
2024/01/22 01:03:50;;;;;;;9.73;2.67;;;26.90;99.90;;;;;;4967441;28;20266;-72
2024/01/22 01:06:18;;;;;;;14.00;3.00;;;26.50;99.90;;;;;;4975707;28;20179;-75
2024/01/22 01:08:45;;;;;;;10.30;2.27;;;26.40;99.90;;;;;;4975896;28;20203;-76
2024/01/22 01:11:13;;;;;;;10.10;2.60;;;26.40;99.90;;;;;;4975748;28;20238;-76
2024/01/22 01:13:40;;;;;;;13.67;3.17;;;26.70;99.90;;;;;;4970802;28;20278;-76
2024/01/22 01:16:07;;;;;;;13.00;3.07;;;26.90;99.90;;;;;;4967973;28;20176;-71
2024/01/22 01:18:34;;;;;;;15.03;3.03;;;27.30;99.90;;;;;;4957423;28;20362;-75
2024/01/22 01:21:02;;;;;;;14.90;3.23;;;27.70;99.90;;;;;;4974751;28;20183;-72
2024/01/22 01:26:52;;;;;;;10.77;2.83;;;27.30;99.90;;;;;;4972927;28;20288;-73
2024/01/22 01:29:19;;;;;;;12.50;2.50;;;27.20;99.90;;;;;;4975156;28;20242;-75
2024/01/22 01:31:46;;;;;;;10.53;2.70;;;27.00;99.90;;;;;;4975153;28;20186;-74
2024/01/22 01:34:14;;;;;;;11.13;3.03;;;27.10;99.90;;;;;;4959335;28;20266;-75
2024/01/22 01:36:41;;;;;;;8.13;2.60;;;27.10;99.90;;;;;;4965025;28;20230;-75
2024/01/22 01:39:08;;;;;;;5.97;2.07;;;27.50;99.90;;;;;;4971052;28;20195;-74
2024/01/22 01:41:36;;;;;;;13.73;3.27;;;27.40;99.90;;;;;;4956130;28;20587;-73
2024/01/22 01:44:03;;;;;;;9.63;2.50;;;27.50;99.90;;;;;;4954210;29;20782;-71
2024/01/22 01:46:30;;;;;;;10.43;2.47;;;27.80;99.90;;;;;;4962874;28;20662;-73
2024/01/22 01:52:20;;;;;;;10.60;2.53;;;27.50;99.90;;;;;;4959292;28;20185;-76
2024/01/22 01:54:50;;;;;;;13.03;2.87;;;27.20;99.90;;;;;;4967232;28;20188;-73
2024/01/22 01:57:20;;;;;;;9.63;3.00;;;27.10;99.90;;;;;;4964042;28;20275;-75
2024/01/22 01:59:47;;;;;;;8.80;2.10;;;26.60;99.90;;;;;;4960681;28;20192;-71
2024/01/22 02:02:14;;;;;;;13.63;3.43;;;26.10;99.90;;;;;;4974694;28;20565;-75
2024/01/22 02:04:42;;;;;;;7.43;2.43;;;26.10;99.90;;;;;;4974012;28;20179;-71
2024/01/22 02:07:09;;;;;;;11.00;2.53;;;26.00;99.90;;;;;;4972774;28;20175;-71
2024/01/22 02:09:50;;;;;;;11.10;2.57;;;26.30;99.90;;;;;;4973266;28;20246;-73
2024/01/22 02:12:18;;;;;;;10.67;2.60;;;26.30;99.90;;;;;;4973401;28;20210;-72
2024/01/22 02:14:46;;;;;;;13.93;3.07;;;26.60;99.90;;;;;;4974873;28;20183;-72
2024/01/22 02:17:15;;;;;;;7.50;2.73;;;26.50;99.90;;;;;;4956636;28;20231;-71
2024/01/22 02:19:43;;;;;;;7.07;2.13;;;26.30;99.90;;;;;;4965761;28;20669;-76
2024/01/22 02:22:10;;;;;;;10.70;2.20;;;26.00;99.90;;;;;;4973012;28;20221;-70
2024/01/22 02:24:37;;;;;;;17.87;3.30;;;25.90;99.90;;;;;;4974536;28;20598;-71
2024/01/22 02:27:05;;;;;;;11.17;2.50;;;25.70;99.90;;;;;;4964333;28;20861;-75
2024/01/22 02:29:32;;;;;;;10.13;2.20;;;25.50;99.90;;;;;;4959250;28;20219;-76
2024/01/22 02:32:00;;;;;;;10.83;2.70;;;25.60;99.90;;;;;;4963550;28;20258;-76
2024/01/22 02:34:27;;;;;;;7.97;2.30;;;25.70;99.90;;;;;;4961687;28;20199;-74
2024/01/22 02:36:54;;;;;;;12.93;2.53;;;25.80;99.90;;;;;;4970819;28;20215;-74
2024/01/22 02:39:22;;;;;;;9.30;2.10;;;25.90;99.90;;;;;;4965569;28;20235;-78
2024/01/22 02:41:49;;;;;;;14.17;2.73;;;25.80;99.90;;;;;;4954509;28;20206;-73
2024/01/22 02:44:16;;;;;;;10.97;2.40;;;26.00;99.90;;;;;;4954170;28;20196;-72
2024/01/22 02:46:43;;;;;;;13.03;2.77;;;26.00;99.90;;;;;;4957136;28;20720;-73
2024/01/22 02:49:11;;;;;;;9.87;3.00;;;26.30;99.90;;;;;;4955577;28;20294;-76
2024/01/22 02:51:38;;;;;;;13.83;2.43;;;26.40;99.90;;;;;;4963711;28;20281;-75
2024/01/22 02:54:05;;;;;;;12.93;2.93;;;26.30;99.90;;;;;;4964207;28;20548;-72
2024/01/22 02:56:33;;;;;;;11.83;2.43;;;26.40;99.90;;;;;;4965572;28;20205;-73
2024/01/22 02:59:00;;;;;;;7.43;2.53;;;26.50;99.90;;;;;;4967135;28;20194;-73
2024/01/22 03:01:28;;;;;;;4.83;1.97;;;26.60;99.90;;;;;;4954521;28;20227;-73
2024/01/22 03:03:55;;;;;;;9.73;2.17;;;26.40;99.90;;;;;;4960075;28;20187;-71
2024/01/22 03:06:23;;;;;;;14.23;2.40;;;26.10;99.90;;;;;;4964029;28;20182;-71
2024/01/22 03:08:50;;;;;;;16.60;2.77;;;25.70;99.90;;;;;;4973564;28;20579;-71
2024/01/22 03:11:18;;;;;;;10.27;2.10;;;25.50;99.90;;;;;;4968882;28;20180;-72
2024/01/22 03:13:45;;;;;;;8.50;2.30;;;25.50;99.90;;;;;;4972973;28;20187;-72
2024/01/22 03:16:12;;;;;;;12.67;3.30;;;25.50;99.90;;;;;;4965588;28;20523;-72
2024/01/22 03:18:40;;;;;;;8.20;2.60;;;25.40;99.90;;;;;;4962169;28;20230;-71
2024/01/22 03:21:07;;;;;;;9.80;2.37;;;25.40;99.90;;;;;;4963907;28;20179;-72
2024/01/22 03:23:34;;;;;;;11.37;2.40;;;25.20;99.90;;;;;;4962753;28;20554;-72
2024/01/22 03:26:02;;;;;;;9.00;2.17;;;25.30;99.90;;;;;;4964302;28;20188;-72
2024/01/22 03:28:30;;;;;;;13.87;2.57;;;25.40;99.90;;;;;;4956657;28;20275;-72
2024/01/22 03:30:57;;;;;;;10.50;2.30;;;25.40;99.90;;;;;;4954109;28;20187;-71
2024/01/22 03:33:24;;;;;;;7.03;2.20;;;25.30;99.90;;;;;;4954525;28;20212;-72
2024/01/22 03:35:52;;;;;;;11.77;2.07;;;25.40;99.90;;;;;;4967650;28;20276;-71
2024/01/22 03:38:19;;;;;;;9.83;2.43;;;25.40;99.90;;;;;;4967437;28;20665;-71
2024/01/22 03:40:46;;;;;;;7.57;2.47;;;25.40;99.90;;;;;;4953970;28;20270;-71
2024/01/22 03:43:14;;;;;;;12.57;2.70;;;25.40;99.90;;;;;;4963231;28;20192;-71
2024/01/22 03:45:41;;;;;;;10.07;2.60;;;25.30;99.90;;;;;;4958503;28;20210;-71
2024/01/22 03:48:08;;;;;;;10.33;2.30;;;25.20;99.90;;;;;;4970109;28;20318;-71
2024/01/22 03:50:36;;;;;;;8.40;2.60;;;25.20;99.90;;;;;;4961867;28;20187;-71
2024/01/22 03:53:03;;;;;;;12.70;2.47;;;25.20;99.90;;;;;;4972846;28;20311;-71
2024/01/22 03:55:30;;;;;;;6.63;1.90;;;25.20;99.90;;;;;;4972654;28;20191;-70
2024/01/22 03:57:58;;;;;;;5.27;1.70;;;25.20;99.90;;;;;;4972438;28;20179;-70
2024/01/22 04:00:25;;;;;;;10.43;2.37;;;25.10;99.90;;;;;;4972592;28;20661;-70
2024/01/22 04:02:52;;;;;;;8.07;2.33;;;25.10;99.90;;;;;;4972952;28;20198;-71
2024/01/22 04:05:20;;;;;;;8.50;2.37;;;25.00;99.90;;;;;;4970933;28;20209;-72
2024/01/22 04:07:47;;;;;;;7.97;2.00;;;25.00;99.90;;;;;;4956343;28;20696;-71
2024/01/22 04:10:14;;;;;;;10.53;2.40;;;25.00;99.90;;;;;;4953399;28;20168;-71
2024/01/22 04:12:42;;;;;;;7.37;1.80;;;24.90;99.90;;;;;;4953067;28;20650;-72
2024/01/22 04:15:09;;;;;;;6.93;1.70;;;24.90;99.90;;;;;;4953511;28;20176;-74
2024/01/22 04:17:37;;;;;;;8.80;2.27;;;25.00;99.90;;;;;;4953478;28;20259;-74
2024/01/22 04:20:04;;;;;;;9.93;2.13;;;25.20;99.90;;;;;;4952949;28;20223;-74
2024/01/22 04:22:32;;;;;;;7.27;1.97;;;25.30;99.90;;;;;;4969110;28;20248;-73
2024/01/22 04:24:59;;;;;;;10.97;2.23;;;25.40;99.90;;;;;;4953799;28;20552;-75
2024/01/22 04:27:26;;;;;;;11.37;2.10;;;25.70;99.90;;;;;;4953957;28;20208;-74
2024/01/22 04:29:54;;;;;;;8.07;1.97;;;25.80;99.90;;;;;;4953312;28;20330;-75
2024/01/22 04:32:21;;;;;;;8.50;2.07;;;25.70;99.90;;;;;;4953263;28;20220;-74
2024/01/22 04:34:50;;;;;;;8.33;2.03;;;25.50;99.90;;;;;;4966680;28;20369;-75
2024/01/22 04:37:18;;;;;;;6.50;1.83;;;25.30;99.90;;;;;;4972540;28;20193;-75
2024/01/22 04:39:45;;;;;;;12.63;2.53;;;25.00;99.90;;;;;;4972415;28;20171;-74
2024/01/22 04:42:18;;;;;;;9.47;2.07;;;25.00;99.90;;;;;;4971971;28;20187;-72
2024/01/22 04:44:45;;;;;;;8.97;1.97;;;25.00;99.90;;;;;;4959866;28;20199;-74
2024/01/22 04:47:12;;;;;;;9.13;2.00;;;25.00;99.90;;;;;;4953298;28;20215;-75
2024/01/22 04:49:40;;;;;;;9.83;2.00;;;24.90;99.90;;;;;;4952716;28;20278;-72
2024/01/22 04:52:07;;;;;;;5.57;1.77;;;24.80;99.90;;;;;;4953034;28;20293;-74
2024/01/22 04:54:35;;;;;;;7.53;2.03;;;24.80;99.90;;;;;;4968339;28;20226;-75
2024/01/22 04:57:02;;;;;;;10.20;1.90;;;24.80;99.90;;;;;;4971963;28;20176;-76
2024/01/22 04:59:29;;;;;;;6.37;1.97;;;24.70;99.90;;;;;;4972165;28;20186;-75
2024/01/22 05:01:56;;;;;;;13.10;2.40;;;24.60;99.90;;;;;;4972386;28;20653;-76
2024/01/22 05:04:24;;;;;;;20.30;3.70;;;24.50;99.90;;;;;;4959324;28;20654;-76
2024/01/22 05:06:51;;;;;;;17.53;3.17;;;24.50;99.90;;;;;;4952945;28;20196;-77
2024/01/22 05:09:18;;;;;;;11.20;2.73;;;24.40;99.90;;;;;;4956366;28;20216;-74
2024/01/22 05:11:46;;;;;;;9.23;2.03;;;24.30;99.90;;;;;;4954788;29;20184;-72
2024/01/22 05:14:13;;;;;;;8.10;2.17;;;24.40;99.90;;;;;;4966756;28;20190;-74
2024/01/22 05:16:40;;;;;;;7.63;1.77;;;24.40;99.90;;;;;;4975874;28;20587;-72
2024/01/22 05:19:07;;;;;;;8.00;1.87;;;24.40;99.90;;;;;;4975047;28;20276;-73
2024/01/22 05:21:35;;;;;;;5.83;1.50;;;24.40;99.90;;;;;;4967298;28;20224;-74
2024/01/22 05:24:02;;;;;;;5.93;2.10;;;24.40;99.90;;;;;;4957753;28;20303;-71
2024/01/22 05:26:29;;;;;;;7.20;2.20;;;24.40;99.90;;;;;;4955919;28;20179;-72
2024/01/22 05:28:57;;;;;;;7.23;2.20;;;24.20;99.90;;;;;;4954969;29;20219;-72
2024/01/22 05:31:24;;;;;;;12.97;2.13;;;24.20;99.90;;;;;;4956174;28;20176;-73
2024/01/22 05:33:51;;;;;;;6.77;2.10;;;24.20;99.90;;;;;;4962760;28;20637;-72
2024/01/22 05:36:19;;;;;;;8.37;2.40;;;24.20;99.90;;;;;;4975387;28;20237;-73
2024/01/22 05:38:46;;;;;;;10.00;2.37;;;24.20;99.90;;;;;;4975204;28;20191;-75
2024/01/22 05:41:13;;;;;;;4.53;1.53;;;24.30;99.90;;;;;;4974821;28;20180;-72
2024/01/22 05:43:40;;;;;;;11.07;1.73;;;24.20;99.90;;;;;;4969518;28;20199;-76
2024/01/22 05:46:08;;;;;;;8.80;2.07;;;24.10;99.90;;;;;;4955795;28;20188;-75
2024/01/22 05:48:35;;;;;;;15.83;2.07;;;24.20;99.90;;;;;;4960062;28;20254;-75
2024/01/22 05:51:02;;;;;;;6.30;1.83;;;24.10;99.90;;;;;;4975171;28;20168;-73
2024/01/22 05:53:30;;;;;;;11.63;1.87;;;24.10;99.90;;;;;;4970651;28;20180;-71
2024/01/22 05:55:57;;;;;;;7.97;1.77;;;23.90;99.90;;;;;;4955435;28;20187;-73
2024/01/22 05:58:24;;;;;;;5.60;1.73;;;24.00;99.90;;;;;;4955645;28;20180;-72
2024/01/22 06:00:52;;;;;;;6.53;1.40;;;24.00;99.90;;;;;;4955742;28;20172;-75
2024/01/22 06:03:19;;;;;;;8.67;1.97;;;23.90;99.90;;;;;;4955530;28;20191;-75
2024/01/22 06:05:47;;;;;;;7.90;1.70;;;23.90;99.90;;;;;;4955765;28;20326;-73
2024/01/22 06:08:14;;;;;;;10.43;2.20;;;24.00;99.90;;;;;;4955548;28;20218;-75
2024/01/22 06:10:42;;;;;;;11.40;2.10;;;24.00;99.90;;;;;;4955124;28;20180;-76
2024/01/22 06:13:09;;;;;;;7.43;1.90;;;24.00;99.90;;;;;;4956122;28;20184;-75
2024/01/22 06:15:36;;;;;;;9.70;1.87;;;23.90;99.90;;;;;;4974759;28;20823;-73
2024/01/22 06:18:04;;;;;;;7.80;1.90;;;23.90;99.90;;;;;;4957814;28;20552;-71
2024/01/22 06:20:32;;;;;;;6.40;2.03;;;23.80;99.90;;;;;;4955164;28;20176;-73
2024/01/22 06:23:00;;;;;;;9.80;1.80;;;23.80;99.90;;;;;;4965965;28;20188;-74
2024/01/22 06:25:28;;;;;;;11.13;1.73;;;23.70;99.90;;;;;;4954982;28;20211;-76
2024/01/22 06:27:55;;;;;;;17.17;2.13;;;23.70;99.90;;;;;;4955100;29;20669;-75
2024/01/22 06:30:22;;;;;;;7.03;2.07;;;23.70;99.90;;;;;;4955360;29;20684;-75
2024/01/22 06:32:49;;;;;;;9.87;2.13;;;23.70;99.90;;;;;;4958306;28;20604;-73
2024/01/22 06:35:17;;;;;;;8.73;2.20;;;23.80;99.90;;;;;;4971972;28;20306;-75
2024/01/22 06:37:44;;;;;;;13.03;2.03;;;23.80;99.90;;;;;;4974318;28;20185;-74
2024/01/22 06:40:12;;;;;;;12.00;2.50;;;23.80;99.90;;;;;;4973910;28;20728;-74
2024/01/22 06:42:39;;;;;;;9.83;1.90;;;23.80;99.90;;;;;;4972574;28;20270;-75
2024/01/22 06:45:10;;;;;;;12.03;2.70;;;23.80;99.90;;;;;;4955146;28;20196;-71
2024/01/22 06:47:37;;;;;;;11.63;2.60;;;23.90;99.90;;;;;;4954425;28;20227;-76
2024/01/22 06:50:05;;;;;;;15.43;2.83;;;23.90;99.90;;;;;;4954822;28;20223;-74
2024/01/22 06:52:32;;;;;;;11.23;2.37;;;23.80;99.90;;;;;;4955091;28;20642;-75
2024/01/22 06:55:01;;;;;;;19.43;3.23;;;23.70;99.90;;;;;;4964506;28;20688;-73
2024/01/22 06:57:28;;;;;;;12.00;2.83;;;23.70;99.90;;;;;;4973777;28;20190;-74
2024/01/22 06:59:56;;;;;;;12.47;2.80;;;23.60;99.90;;;;;;4973712;28;20708;-72
2024/01/22 07:02:27;;;;;;;11.93;2.67;;;23.50;99.90;;;;;;4973544;28;20684;-72
2024/01/22 07:04:57;;;;;;;7.07;1.83;;;23.50;99.90;;;;;;4964281;28;20194;-73
2024/01/22 07:07:25;;;;;;;13.40;2.93;;;23.50;99.90;;;;;;4954458;29;20184;-71
2024/01/22 07:09:53;;;;;;;12.83;2.70;;;23.50;99.90;;;;;;4953987;28;20211;-71
2024/01/22 07:12:21;;;;;;;13.80;3.13;;;23.40;99.90;;;;;;4954525;28;20194;-74
2024/01/22 07:14:48;;;;;;;13.77;2.77;;;23.30;99.90;;;;;;4962264;28;20211;-73
2024/01/22 07:17:19;;;;;;;16.83;3.30;;;23.20;99.90;;;;;;4973215;28;20181;-74
2024/01/22 07:19:47;;;;;;;12.73;2.73;;;23.20;99.90;;;;;;4969330;28;20239;-71
2024/01/22 07:22:14;;;;;;;18.63;3.17;;;23.20;99.90;;;;;;4967976;28;20191;-72
2024/01/22 07:24:41;;;;;;;16.50;2.80;;;23.20;99.90;;;;;;4968589;28;20234;-74
2024/01/22 07:27:09;;;;;;;12.90;2.63;;;23.10;99.90;;;;;;4973584;28;20172;-73
2024/01/22 07:29:37;;;;;;;13.37;2.47;;;23.10;99.90;;;;;;4973264;28;20250;-73
2024/01/22 07:32:04;;;;;;;15.73;3.27;;;23.10;99.90;;;;;;4972445;28;20179;-73
2024/01/22 07:34:32;;;;;;;15.53;2.50;;;23.10;99.90;;;;;;4972468;28;20187;-73
2024/01/22 07:36:59;;;;;;;14.77;2.87;;;23.10;99.90;;;;;;4972123;28;20195;-72
2024/01/22 07:39:27;;;;;;;10.20;2.60;;;23.10;99.90;;;;;;4972671;28;20206;-72
2024/01/22 07:41:54;;;;;;;10.23;2.10;;;23.00;99.90;;;;;;4972921;28;20180;-73
2024/01/22 07:44:21;;;;;;;18.73;3.80;;;23.00;99.90;;;;;;4955889;28;20184;-74
2024/01/22 07:46:50;;;;;;;15.00;2.80;;;23.00;99.90;;;;;;4958559;28;20249;-73
2024/01/22 07:49:17;;;;;;;9.53;2.30;;;23.00;99.90;;;;;;4953819;28;20224;-73
2024/01/22 07:51:45;;;;;;;7.57;2.77;;;23.00;99.90;;;;;;4953700;28;20176;-74
2024/01/22 07:54:12;;;;;;;13.90;2.60;;;22.90;99.90;;;;;;4953727;28;20184;-73
2024/01/22 07:56:40;;;;;;;7.97;2.37;;;23.00;99.90;;;;;;4955510;28;20728;-75
2024/01/22 07:59:07;;;;;;;10.77;2.53;;;22.90;99.90;;;;;;4968949;28;20191;-72
2024/01/22 08:01:36;;;;;;;10.90;2.50;;;22.90;99.90;;;;;;4972369;28;20178;-73
2024/01/22 08:04:03;;;;;;;14.00;3.53;;;22.90;99.90;;;;;;4959342;28;20187;-74
2024/01/22 08:06:31;;;;;;;17.30;2.70;;;23.00;99.90;;;;;;4953706;28;20630;-75
2024/01/22 08:09:00;;;;;;;10.73;2.50;;;22.90;99.90;;;;;;4953135;28;20223;-72
2024/01/22 08:11:27;;;;;;;16.57;2.70;;;22.80;99.90;;;;;;4953460;28;20230;-71
2024/01/22 08:13:54;;;;;;;17.93;3.33;;;22.90;99.90;;;;;;4953595;28;20183;-72
2024/01/22 08:16:22;;;;;;;15.37;3.23;;;22.90;99.90;;;;;;4953208;28;20183;-73
2024/01/22 08:18:49;;;;;;;13.47;2.40;;;22.80;99.90;;;;;;4960205;28;20277;-72
2024/01/22 08:21:17;;;;;;;16.23;2.87;;;22.80;99.90;;;;;;4971361;28;20190;-73
2024/01/22 08:23:44;;;;;;;15.63;2.57;;;22.80;99.90;;;;;;4959652;28;20195;-72
2024/01/22 08:26:12;;;;;;;21.70;2.53;;;22.80;99.90;;;;;;4953416;28;20207;-71
2024/01/22 08:28:39;;;;;;;14.17;2.80;;;22.70;99.90;;;;;;4953490;28;20227;-71
2024/01/22 08:31:06;;;;;;;18.13;3.20;;;22.70;99.90;;;;;;4955559;28;20614;-71
2024/01/22 08:33:34;;;;;;;10.23;2.70;;;22.70;99.90;;;;;;4962573;28;20191;-71
2024/01/22 08:36:01;;;;;;;12.77;2.53;;;22.70;99.90;;;;;;4953618;28;20283;-71
2024/01/22 08:38:28;;;;;;;14.93;2.53;;;22.70;99.90;;;;;;4952902;28;20588;-70
2024/01/22 08:40:56;;;;;;;12.57;3.13;;;22.60;99.90;;;;;;4960704;28;20215;-71
2024/01/22 08:43:23;;;;;;;12.70;2.87;;;22.60;99.90;;;;;;4970437;28;20233;-71
2024/01/22 08:45:50;;;;;;;11.97;2.57;;;22.60;99.90;;;;;;4969304;28;20219;-71
2024/01/22 08:48:18;;;;;;;14.47;2.53;;;22.60;99.90;;;;;;4976368;28;20273;-71
2024/01/22 08:50:45;;;;;;;12.87;2.53;;;22.60;99.90;;;;;;4976407;28;20231;-71
2024/01/22 08:53:13;;;;;;;18.20;2.97;;;22.50;99.90;;;;;;4975455;28;20283;-72
2024/01/22 08:55:40;;;;;;;8.23;2.20;;;22.50;99.90;;;;;;4976201;28;20181;-73
2024/01/22 08:58:09;;;;;;;9.60;2.43;;;22.60;99.90;;;;;;4976207;28;20250;-72
2024/01/22 09:00:37;;;;;;;12.43;2.57;;;22.50;99.90;;;;;;4975951;28;20218;-73
2024/01/22 09:03:04;;;;;;;16.90;2.50;;;22.50;99.90;;;;;;4964017;28;20187;-71
2024/01/22 09:05:32;;;;;;;10.67;2.40;;;22.50;99.90;;;;;;4964680;28;20219;-71
2024/01/22 09:07:59;;;;;;;12.13;2.30;;;22.40;99.90;;;;;;4958504;28;20239;-71
2024/01/22 09:10:27;;;;;;;13.07;2.30;;;22.50;99.90;;;;;;4957551;29;20179;-73
2024/01/22 09:12:54;;;;;;;9.57;2.13;;;22.50;99.90;;;;;;4956401;28;20180;-73
2024/01/22 09:15:22;;;;;;;11.10;2.10;;;22.50;99.90;;;;;;4956212;28;20176;-72
2024/01/22 09:17:49;;;;;;;17.07;2.70;;;22.40;99.90;;;;;;4956474;28;20676;-72
2024/01/22 09:20:17;;;;;;;13.93;2.37;;;22.40;99.90;;;;;;4956494;29;20183;-71
2024/01/22 09:22:44;;;;;;;12.40;2.57;;;22.40;99.90;;;;;;4955846;29;20227;-72
2024/01/22 09:25:11;;;;;;;13.27;2.50;;;22.40;99.90;;;;;;4961459;28;20187;-72
2024/01/22 09:27:39;;;;;;;10.53;3.00;;;22.40;99.90;;;;;;4957452;28;20266;-72
2024/01/22 09:30:07;;;;;;;14.03;2.33;;;22.40;99.90;;;;;;4957579;28;20188;-72
2024/01/22 09:32:35;;;;;;;7.97;2.20;;;22.40;99.90;;;;;;4957750;28;20180;-71
2024/01/22 09:35:03;;;;;;;17.07;2.60;;;22.40;99.90;;;;;;4957701;28;20238;-72
2024/01/22 09:37:30;;;;;;;11.80;2.73;;;22.40;99.90;;;;;;4957878;28;20620;-72
2024/01/22 09:39:58;;;;;;;13.80;2.47;;;22.30;99.90;;;;;;4957595;28;20657;-72
2024/01/22 09:42:27;;;;;;;12.10;3.07;;;22.40;99.90;;;;;;4957539;28;20703;-72
2024/01/22 09:44:54;;;;;;;13.63;2.30;;;22.40;99.90;;;;;;4957769;28;20184;-73
2024/01/22 09:47:22;;;;;;;14.90;2.73;;;22.40;99.90;;;;;;4957674;28;20187;-73
2024/01/22 09:49:50;;;;;;;10.30;2.60;;;22.40;99.90;;;;;;4957613;28;20219;-73
2024/01/22 09:52:18;;;;;;;16.57;2.30;;;22.40;99.90;;;;;;4957653;28;20708;-72
2024/01/22 09:54:45;;;;;;;9.03;2.70;;;22.30;99.90;;;;;;4957446;28;20622;-71
2024/01/22 09:57:18;;;;;;;12.93;2.77;;;22.30;99.90;;;;;;4957510;28;20183;-73
2024/01/22 09:59:46;;;;;;;9.73;1.93;;;22.30;99.90;;;;;;4957673;28;20650;-73
2024/01/22 10:02:17;;;;;;;9.70;2.63;;;22.30;99.90;;;;;;4957124;28;20683;-72
2024/01/22 10:04:45;;;;;;;17.77;2.97;;;22.30;99.90;;;;;;4957373;28;20181;-72
2024/01/22 10:07:16;;;;;;;13.30;2.63;;;22.30;99.90;;;;;;4957383;28;20192;-73
2024/01/22 10:09:44;;;;;;;8.27;2.20;;;22.30;99.90;;;;;;4957130;28;20311;-73
2024/01/22 10:12:11;;;;;;;7.90;2.13;;;22.30;99.90;;;;;;4956937;28;20263;-72
2024/01/22 10:14:40;;;;;;;10.90;2.40;;;22.30;99.90;;;;;;4957168;28;20180;-72
2024/01/22 10:17:18;;;;;;;14.20;2.53;;;22.30;99.90;;;;;;4957119;28;20542;-71
2024/01/22 10:19:46;;;;;;;8.07;2.23;;;22.20;99.90;;;;;;4956919;28;20183;-71
2024/01/22 10:22:17;;;;;;;13.40;2.50;;;22.20;99.90;;;;;;4957098;28;20588;-72
2024/01/22 10:24:57;;;;;;;11.50;2.70;;;22.20;99.90;;;;;;4956850;28;20188;-72
2024/01/22 10:27:24;;;;;;;11.23;2.00;;;22.10;99.90;;;;;;4956777;28;20183;-72
2024/01/22 10:29:51;;;;;;;13.33;3.00;;;22.10;99.90;;;;;;4956826;28;20222;-75
2024/01/22 10:32:22;;;;;;;13.73;1.93;;;22.20;99.90;;;;;;4956559;28;20271;-74
2024/01/22 10:34:53;;;;;;;11.33;2.33;;;22.20;99.90;;;;;;4956509;28;20659;-74
2024/01/22 10:37:20;;;;;;;16.17;2.80;;;22.10;99.90;;;;;;4956386;28;20236;-74
2024/01/22 10:40:03;;;;;;;8.20;2.60;;;22.10;99.90;;;;;;4955692;28;20267;-72
2024/01/22 10:42:31;;;;;;;10.50;2.67;;;22.00;99.90;;;;;;4955629;28;20203;-71
2024/01/22 10:44:59;;;;;;;12.43;2.20;;;22.10;99.90;;;;;;4955747;28;20176;-73
2024/01/22 10:47:29;;;;;;;8.17;2.33;;;22.00;99.90;;;;;;4955799;28;20231;-71
2024/01/22 10:50:02;;;;;;;10.57;1.90;;;22.10;99.90;;;;;;4955771;28;20647;-72
2024/01/22 10:52:30;;;;;;;10.43;1.87;;;22.10;99.90;;;;;;4955454;28;20183;-73
2024/01/22 10:54:57;;;;;;;12.40;2.47;;;22.10;99.90;;;;;;4955955;28;20547;-71
2024/01/22 10:57:40;;;;;;;10.87;1.73;;;22.10;99.90;;;;;;4948690;28;20179;-71
2024/01/22 11:00:10;;;;;;;8.23;1.97;;;22.10;99.90;;;;;;4973013;28;20183;-71
2024/01/22 11:02:43;;;;;;;8.53;2.50;;;22.10;99.90;;;;;;4972399;28;20193;-70
2024/01/22 11:05:15;;;;;;;7.47;2.00;;;22.10;99.90;;;;;;4970562;28;20201;-73
2024/01/22 11:07:43;;;;;;;12.70;2.53;;;22.10;99.90;;;;;;4972926;28;20241;-71
2024/01/22 11:10:11;;;;;;;12.93;2.47;;;22.10;99.90;;;;;;4957424;28;20294;-72
2024/01/22 11:12:57;;;;;;;13.20;2.53;;;22.00;99.90;;;;;;4953145;28;20686;-73
2024/01/22 11:15:25;;;;;;;12.87;2.73;;;22.10;99.90;;;;;;4971127;28;20240;-73
2024/01/22 11:17:52;;;;;;;12.50;2.83;;;22.10;99.90;;;;;;4972964;28;20687;-72
2024/01/22 11:20:22;;;;;;;9.67;2.50;;;22.10;99.90;;;;;;4972356;28;20182;-72
2024/01/22 11:23:04;;;;;;;12.93;2.57;;;22.00;99.90;;;;;;4971669;28;20179;-72
2024/01/22 11:25:34;;;;;;;8.57;2.07;;;22.10;99.90;;;;;;4953594;28;20184;-72
2024/01/22 11:28:10;;;;;;;16.83;2.63;;;22.10;99.90;;;;;;4953045;28;20235;-72
2024/01/22 11:30:41;;;;;;;12.83;2.77;;;22.10;99.90;;;;;;4964838;28;20199;-72
2024/01/22 11:33:27;;;;;;;16.87;2.40;;;22.10;99.90;;;;;;4970166;28;20192;-72
2024/01/22 11:35:55;;;;;;;10.97;2.30;;;22.00;99.90;;;;;;4828327;28;3666741;-72
2024/01/22 11:38:43;;;;;;;11.97;2.30;;;22.00;99.90;;;;;;4954070;28;20660;-72
2024/01/22 11:41:10;;;;;;;14.17;2.57;;;22.00;99.90;;;;;;4953742;28;20712;-73
2024/01/22 11:43:38;;;;;;;14.93;2.60;;;22.00;99.90;;;;;;4954082;28;20184;-72
2024/01/22 11:46:25;;;;;;;12.73;2.80;;;21.90;99.90;;;;;;4954117;28;20600;-72
2024/01/22 11:48:54;;;;;;;12.63;2.27;;;21.90;99.90;;;;;;4953614;28;20223;-72
2024/01/22 11:51:27;;;;;;;12.50;2.43;;;21.90;99.90;;;;;;4953944;28;20184;-71
2024/01/22 11:53:59;;;;;;;15.33;2.57;;;21.90;99.90;;;;;;4953659;28;20207;-72
2024/01/22 11:56:26;;;;;;;9.20;2.63;;;21.90;99.90;;;;;;4953437;28;20183;-71
2024/01/22 11:59:02;;;;;;;11.20;2.30;;;21.90;99.90;;;;;;4953768;28;20207;-71
2024/01/22 12:01:29;;;;;;;9.07;2.83;;;21.80;99.90;;;;;;4953887;28;20183;-72
2024/01/22 12:04:07;;;;;;;13.33;2.63;;;21.80;99.90;;;;;;4953518;28;20194;-72
2024/01/22 12:06:49;;;;;;;9.20;2.40;;;21.70;99.90;;;;;;4953903;28;20180;-72
2024/01/22 12:09:16;;;;;;;13.07;2.73;;;21.70;99.90;;;;;;4953745;28;20211;-72
2024/01/22 12:11:51;;;;;;;17.13;3.03;;;21.70;99.90;;;;;;4953208;28;20203;-72
2024/01/22 12:14:19;;;;;;;13.47;2.53;;;21.70;99.90;;;;;;4952381;28;20194;-70
2024/01/22 12:16:46;;;;;;;9.50;2.70;;;21.70;99.90;;;;;;4953113;28;20179;-71
2024/01/22 12:19:14;;;;;;;15.83;2.73;;;21.60;99.90;;;;;;4952789;28;20175;-74
2024/01/22 12:21:42;;;;;;;11.80;2.93;;;21.60;99.90;;;;;;4953599;28;20184;-72
2024/01/22 12:24:16;;;;;;;12.27;2.83;;;21.50;99.90;;;;;;4953508;28;20206;-71
2024/01/22 12:26:43;;;;;;;14.53;2.93;;;21.60;99.90;;;;;;4953105;28;20214;-70
2024/01/22 12:29:27;;;;;;;10.43;2.70;;;21.60;99.90;;;;;;4953500;28;20211;-71
2024/01/22 12:32:05;;;;;;;10.43;2.17;;;21.70;99.90;;;;;;4953573;28;20239;-71
2024/01/22 12:34:33;;;;;;;15.87;2.50;;;21.60;99.90;;;;;;4964444;28;20200;-70
2024/01/22 12:37:19;;;;;;;14.80;2.67;;;21.60;99.90;;;;;;4972852;28;20649;-70
2024/01/22 12:39:48;;;;;;;13.47;2.23;;;21.60;99.90;;;;;;4972721;28;20621;-71
2024/01/22 12:42:19;;;;;;;13.73;2.70;;;21.50;99.90;;;;;;4972006;28;20676;-72
2024/01/22 12:45:00;;;;;;;10.37;2.50;;;21.50;99.90;;;;;;4954293;28;20232;-71
2024/01/22 12:47:29;;;;;;;16.90;2.83;;;21.60;99.90;;;;;;4952959;28;20201;-71
2024/01/22 12:49:57;;;;;;;11.67;2.27;;;21.60;99.90;;;;;;4956573;28;20589;-71
2024/01/22 12:52:25;;;;;;;13.70;2.23;;;21.70;99.90;;;;;;4968116;28;20187;-71
2024/01/22 12:54:52;;;;;;;14.83;2.73;;;21.60;99.90;;;;;;4971525;28;20187;-71